Emmagracht — PDYX — position and weather

sailwx.info

Track history (hours):
 
Tides and Currents Weather Stations Pressure Air Temp Water Temp Dewpoint Dewpoint Depression Visibility Wind Speed Wind Dir Waves Ship Positions

Emmagracht

Last reported at 2017-May-25 00:00 UTC. Time now 2017-May-25 08:32 UTC.
Position N 38°12' W 021°06'.

Length 136 m; beam 19 m; draft 9 m.

Type: Cargo ship. MMSI: 246308000.

Wind from 360 at 9 knots

Barometer 1017.2 mb
Air temperature 18.0 ° C
Visibility: greater than 5.4 NM
Dewpoint 14.8 ° C
Water temperature 15.0 ° C

Date/timePositionNaut miles runAvg speedWind from/ knotsBaromVisibWave heightAir tempDewpointWater temp
2017-May-25 00:00N 38°12' W 021°06'14912.4 360 / 91017.2 5.4 18.014.815.0
2017-May-24 12:00N 38°42' W 024°12'4217.2 200 / 111017.2 5.4 20.016.117.0
2017-May-24 09:31N 38°53' W 025°04'013.0
2017-May-24 09:30N 38°53' W 025°05'1513.2
2017-May-24 08:23N 38°57' W 025°23'613.1
2017-May-24 07:56N 38°58' W 025°31'512.9
2017-May-24 07:30N 38°59' W 025°38'712.9
2017-May-24 06:59N 39°01' W 025°46'812.7
2017-May-24 06:23N 39°02' W 025°56'512.6
2017-May-24 05:58N 39°03' W 026°02'612.8
2017-May-24 05:29N 39°04' W 026°10'1013.0
2017-May-24 04:43N 39°06' W 026°23'513.0
2017-May-24 04:19N 39°07' W 026°29'412.7
2017-May-24 04:00N 39°08' W 026°34'712.5
2017-May-24 03:29N 39°09' W 026°43'612.6
2017-May-24 03:00N 39°10' W 026°50'612.6
2017-May-24 02:31N 39°11' W 026°58'612.6
2017-May-24 02:00N 39°13' W 027°06'612.9
2017-May-24 01:30N 39°14' W 027°14'612.9
2017-May-24 01:01N 39°15' W 027°22'713.2
2017-May-24 00:30N 39°17' W 027°31'713.1
2017-May-24 00:00N 39°18' W 027°39'612.8
2017-May-23 23:30N 39°19' W 027°47'612.7
2017-May-23 23:00N 39°20' W 027°55'713.1
2017-May-23 22:30N 39°22' W 028°04'713.0
2017-May-23 22:00N 39°23' W 028°12'713.1
2017-May-23 21:30N 39°24' W 028°20'713.1
2017-May-23 21:00N 39°26' W 028°28'712.9
2017-May-23 20:30N 39°27' W 028°37'613.0
2017-May-23 20:00N 39°28' W 028°45'713.1
2017-May-23 19:30N 39°29' W 028°53'713.1
2017-May-23 19:01N 39°31' W 029°02'713.1
2017-May-23 18:30N 39°32' W 029°10'713.2
2017-May-23 18:00N 39°33' W 029°18'713.3
2017-May-23 17:30N 39°34' W 029°27'713.3
2017-May-23 17:01N 39°36' W 029°35'713.0
2017-May-23 16:30N 39°37' W 029°44'612.7
2017-May-23 16:00N 39°38' W 029°52'612.9
2017-May-23 15:30N 39°39' W 029°60'712.9
2017-May-23 14:59N 39°40' W 030°09'59213.2
2017-May-21 18:00N 41°36' W 042°54'30912.9 240 / 191004.2 2.2 17.011.013.0
2017-May-20 18:00N 42°36' W 049°42'15713.1 260 / 111008.2 0.3 13.011.314.0
2017-May-20 06:00N 43°06' W 053°12'15813.2 250 / 161006.2 13.013.015.0
2017-May-19 18:00N 44°30' W 056°18'16613.8 160 / 161004.2 10.5 9.6 9.0
2017-May-19 06:00N 46°42' W 058°42'16513.7 130 / 161004.3 2.2 5.5 4.4 4.0
2017-May-18 18:00N 48°24' W 061°54'   180 / 61006.2 5.4 10.0 7.1 8.0
Track history (hours):
 
Tides and Currents Weather Stations Pressure Air Temp Water Temp Dewpoint Dewpoint Depression Visibility Wind Speed Wind Dir Waves Ship Positions

Emmagracht

Last reported at 2017-May-25 00:00 UTC. Time now 2017-May-25 08:32 UTC.
Position N 38°12' W 021°06'.

Length 136 m; beam 19 m; draft 9 m.

Type: Cargo ship. MMSI: 246308000.

Wind from 360 at 9 knots

Barometer 1017.2 mb
Air temperature 18.0 ° C
Visibility: greater than 5.4 NM
Dewpoint 14.8 ° C
Water temperature 15.0 ° C

Date/timePositionNaut miles runAvg speedWind from/ knotsBaromVisibWave heightAir tempDewpointWater temp
2017-May-25 00:00N 38°12' W 021°06'14912.4 360 / 91017.2 5.4 18.014.815.0
2017-May-24 12:00N 38°42' W 024°12'4217.2 200 / 111017.2 5.4 20.016.117.0
2017-May-24 09:31N 38°53' W 025°04'013.0
2017-May-24 09:30N 38°53' W 025°05'1513.2
2017-May-24 08:23N 38°57' W 025°23'613.1
2017-May-24 07:56N 38°58' W 025°31'512.9
2017-May-24 07:30N 38°59' W 025°38'712.9
2017-May-24 06:59N 39°01' W 025°46'812.7
2017-May-24 06:23N 39°02' W 025°56'512.6
2017-May-24 05:58N 39°03' W 026°02'612.8
2017-May-24 05:29N 39°04' W 026°10'1013.0
2017-May-24 04:43N 39°06' W 026°23'513.0
2017-May-24 04:19N 39°07' W 026°29'412.7
2017-May-24 04:00N 39°08' W 026°34'712.5
2017-May-24 03:29N 39°09' W 026°43'612.6
2017-May-24 03:00N 39°10' W 026°50'612.6
2017-May-24 02:31N 39°11' W 026°58'612.6
2017-May-24 02:00N 39°13' W 027°06'612.9
2017-May-24 01:30N 39°14' W 027°14'612.9
2017-May-24 01:01N 39°15' W 027°22'713.2
2017-May-24 00:30N 39°17' W 027°31'713.1
2017-May-24 00:00N 39°18' W 027°39'612.8
2017-May-23 23:30N 39°19' W 027°47'612.7
2017-May-23 23:00N 39°20' W 027°55'713.1
2017-May-23 22:30N 39°22' W 028°04'713.0
2017-May-23 22:00N 39°23' W 028°12'713.1
2017-May-23 21:30N 39°24' W 028°20'713.1
2017-May-23 21:00N 39°26' W 028°28'712.9
2017-May-23 20:30N 39°27' W 028°37'613.0
2017-May-23 20:00N 39°28' W 028°45'713.1
2017-May-23 19:30N 39°29' W 028°53'713.1
2017-May-23 19:01N 39°31' W 029°02'713.1
2017-May-23 18:30N 39°32' W 029°10'713.2
2017-May-23 18:00N 39°33' W 029°18'713.3
2017-May-23 17:30N 39°34' W 029°27'713.3
2017-May-23 17:01N 39°36' W 029°35'713.0
2017-May-23 16:30N 39°37' W 029°44'612.7
2017-May-23 16:00N 39°38' W 029°52'612.9
2017-May-23 15:30N 39°39' W 029°60'712.9
2017-May-23 14:59N 39°40' W 030°09'59213.2
2017-May-21 18:00N 41°36' W 042°54'30912.9 240 / 191004.2 2.2 17.011.013.0
2017-May-20 18:00N 42°36' W 049°42'15713.1 260 / 111008.2 0.3 13.011.314.0
2017-May-20 06:00N 43°06' W 053°12'15813.2 250 / 161006.2 13.013.015.0
2017-May-19 18:00N 44°30' W 056°18'16613.8 160 / 161004.2 10.5 9.6 9.0
2017-May-19 06:00N 46°42' W 058°42'16513.7 130 / 161004.3 2.2 5.5 4.4 4.0
2017-May-18 18:00N 48°24' W 061°54'   180 / 61006.2 5.4 10.0 7.1 8.0

Dump ship's entire track history